This is the latest recevied weather packets stored in our database for station/object KC0FGX-1. If no packets are shown the sender has not sent any weather packets the latest 10 day(s).
| Time | Temp. | Humidity | Pressure | Rain* | Wind** | Luminosity | Snow |
|---|---|---|---|---|---|---|---|
| 1777690190 | 7.78° C | 72% | 1016.7 hPa | 0 mm | - | - | - |
| 1777689189 | 7.78° C | 73% | 1016.5 hPa | 0 mm | - | - | - |
| 1777674190 | 16.11° C | 38% | 1013.6 hPa | 0 mm | - | - | - |
| 1777673189 | 15.56° C | 36% | 1013.7 hPa | 0 mm | - | - | - |
| 1777670189 | 15.56° C | 38% | 1013.9 hPa | 0 mm | - | - | - |
| 1777667189 | 15° C | 43% | 1014.5 hPa | 0 mm | - | - | - |
| 1777665190 | 14.44° C | 42% | 1014.9 hPa | 0 mm | - | - | - |
| 1777664189 | 15.56° C | 38% | 1014.8 hPa | 0 mm | - | - | - |
| 1777663190 | 15° C | 42% | 1014.6 hPa | 0 mm | - | - | - |
| 1777659190 | 14.44° C | 42% | 1015.2 hPa | 0 mm | - | - | - |
| 1777658189 | 14.44° C | 40% | 1015.2 hPa | 0 mm | - | - | - |
| 1777656190 | 14.44° C | 41% | 1015.5 hPa | 0 mm | - | - | - |
| 1777655189 | 14.44° C | 47% | 1015.7 hPa | 0 mm | - | - | - |
| 1777653189 | 13.89° C | 38% | 1015.7 hPa | 0 mm | - | - | - |
| 1777652189 | 13.89° C | 38% | 1015.9 hPa | 0 mm | - | - | - |
| 1777650189 | 13.33° C | 43% | 1015.9 hPa | 0 mm | - | - | - |
| 1777649189 | 12.78° C | 45% | 1016 hPa | 0 mm | - | - | - |
| 1777648189 | 12.78° C | 44% | 1016 hPa | 0 mm | - | - | - |
| 1777647189 | 12.78° C | 43% | 1016.2 hPa | 0 mm | - | - | - |
| 1777646190 | 12.22° C | 47% | 1016.4 hPa | 0 mm | - | - | - |
| 1777645189 | 11.11° C | 52% | 1016.4 hPa | 0 mm | - | - | - |
| 1777644191 | 10.56° C | 59% | 1016.5 hPa | 0 mm | - | - | - |
| 1777642189 | 8.33° C | 69% | 1016.5 hPa | 0 mm | - | - | - |
| 1777641189 | 7.78° C | 71% | 1016.5 hPa | 0 mm | - | - | - |
| 1777640189 | 7.78° C | 74% | 1016.6 hPa | 0 mm | - | - | - |
* Rain latest hour (hover to see other rain measurements)
** Current wind speed in m/s (hover to see current wind gust speed)